Time;durP1;ratioP1;P1;durP2;ratioP2;P2;SDS_P1;SDS_P2;PMS_P1;PMS_P2;Temp;Humidity;BMP_temperature;BMP_pressure;BME280_temperature;BME280_humidity;BME280_pressure;Samples;Min_cycle;Max_cycle;Signal;HPM_P1;HPM_P2
2022/01/04 10:15:08;;;;;;;10.27;7.40;;;;;;;11.43;87.74;100431.03;5051034;28;20505;-79
2022/01/04 10:17:35;;;;;;;12.73;7.28;;;;;;;11.66;85.27;100426.59;5054249;28;20037;-80
2022/01/04 10:20:01;;;;;;;11.73;6.30;;;;;;;11.77;80.25;100409.69;5054019;28;20021;-79
2022/01/04 10:22:34;;;;;;;9.52;6.57;;;;;;;11.96;79.75;100418.97;5048995;28;20057;-79
2022/01/04 10:25:03;;;;;;;11.38;6.28;;;;;;;11.97;80.66;100420.72;5055098;28;20026;-79
2022/01/04 10:27:46;;;;;;;11.00;6.47;;;;;;;12.00;83.10;100413.88;5063306;28;20021;-79
2022/01/04 10:30:22;;;;;;;11.43;6.75;;;;;;;12.06;86.33;100409.78;5070758;28;20020;-79
2022/01/04 10:33:01;;;;;;;11.20;7.40;;;;;;;11.91;89.14;100406.66;5073637;28;20025;-79
2022/01/04 10:35:31;;;;;;;14.23;8.05;;;;;;;11.91;91.45;100407.56;5072412;28;20021;-79
2022/01/04 10:37:58;;;;;;;;;;;;;;;12.04;92.66;100398.47;5073244;28;20071;-79
2022/01/04 10:40:25;;;;;;;12.88;7.88;;;;;;;12.18;92.06;100383.34;5072753;28;19918;-79
2022/01/04 10:42:51;;;;;;;11.68;7.43;;;;;;;12.13;89.67;100372.84;5062831;28;20513;-79
2022/01/04 10:45:29;;;;;;;11.85;7.47;;;;;;;12.28;90.15;100385.38;5069588;28;20060;-79
2022/01/04 10:47:57;;;;;;;12.98;7.75;;;;;;;12.39;89.87;100385.69;5070478;28;20107;-79
2022/01/04 10:50:36;;;;;;;11.52;7.60;;;;;;;12.14;89.25;100317.69;5072919;28;20489;-80
2022/01/04 10:53:03;;;;;;;11.05;7.32;;;;;;;12.62;89.46;100381.16;5071794;28;20035;-79
2022/01/04 10:55:31;;;;;;;10.88;7.03;;;;;;;12.79;87.81;100367.75;5054524;28;20158;-79
2022/01/04 10:57:57;;;;;;;9.02;6.13;;;;;;;12.89;86.96;100363.69;5066519;28;20044;-78
2022/01/04 11:00:24;;;;;;;11.13;6.70;;;;;;;12.90;88.07;100360.28;5062268;28;20024;-78
2022/01/04 11:02:49;;;;;;;12.43;6.75;;;;;;;13.02;87.15;100360.59;5063201;28;20154;-79
2022/01/04 11:05:17;;;;;;;8.43;6.00;;;;;;;13.12;86.28;100333.16;5066232;28;20111;-79
2022/01/04 11:08:17;;;;;;;8.05;5.75;;;;;;;13.25;87.31;100339.53;5062553;28;20398;-80
2022/01/04 11:10:43;;;;;;;;;;;;;;;13.36;87.39;100332.03;4971586;28;20231;-79
2022/01/04 11:13:08;;;;;;;8.93;6.20;;;;;;;13.38;84.85;100307.00;4954924;28;20075;-79
2022/01/04 11:15:34;;;;;;;11.52;6.22;;;;;;;13.63;86.07;100328.31;4971853;28;20082;-79
2022/01/04 11:17:59;;;;;;;10.38;6.60;;;;;;;13.51;85.00;100290.91;4959662;28;20081;-73
2022/01/04 11:20:25;;;;;;;8.98;6.50;;;;;;;13.65;85.03;100311.09;4950737;28;20049;-80
2022/01/04 11:22:55;;;;;;;8.55;6.10;;;;;;;13.64;86.20;100311.91;4991020;28;20038;-73
2022/01/04 11:25:22;;;;;;;9.57;5.95;;;;;;;13.73;83.78;100314.69;4990596;28;20181;-78
2022/01/04 11:27:48;;;;;;;8.75;5.55;;;;;;;13.83;83.48;100308.00;4990820;28;20124;-77
2022/01/04 11:30:21;;;;;;;7.53;4.32;;;;;;;13.99;77.36;100294.47;4990765;28;20088;-77
2022/01/04 11:32:52;;;;;;;4.47;3.10;;;;;;;14.01;73.66;100285.00;4990747;28;20038;-77
2022/01/04 11:35:21;;;;;;;5.13;3.15;;;;;;;14.10;72.36;100291.25;4990771;28;20472;-76
2022/01/04 11:38:00;;;;;;;5.97;3.45;;;;;;;14.18;71.24;100277.56;4974126;28;20523;-78
2022/01/04 11:40:40;;;;;;;5.90;4.20;;;;;;;14.27;75.95;100288.94;4990484;28;20468;-76
2022/01/04 11:43:25;;;;;;;5.40;3.72;;;;;;;14.30;75.21;100279.50;4992712;28;20037;-76
2022/01/04 11:45:51;;;;;;;6.57;4.50;;;;;;;14.38;75.32;100279.63;5010707;28;20532;-87
2022/01/04 11:48:35;;;;;;;6.90;4.43;;;;;;;14.22;70.45;100247.34;5038973;28;20456;-79
2022/01/04 11:51:06;;;;;;;8.07;4.47;;;;;;;14.42;71.99;100278.88;5049731;28;20025;-81
2022/01/04 11:53:33;;;;;;;4.88;3.20;;;;;;;14.27;72.56;100248.28;5028185;28;20033;-77
2022/01/04 11:56:05;;;;;;;8.20;3.50;;;;;;;14.24;71.53;100246.53;5051182;28;20025;-78
2022/01/04 11:58:52;;;;;;;7.45;3.58;;;;;;;14.38;70.19;100270.13;5046228;28;20029;-76
2022/01/04 12:01:27;;;;;;;5.25;3.45;;;;;;;14.33;70.99;100264.00;5050600;28;20021;-76
2022/01/04 12:03:53;;;;;;;6.88;4.05;;;;;;;14.35;70.92;100262.28;5049488;28;20410;-76
2022/01/04 12:06:21;;;;;;;8.02;3.58;;;;;;;14.44;69.17;100258.97;5049768;28;20096;-77
2022/01/04 12:08:51;;;;;;;6.13;3.22;;;;;;;14.33;69.29;100243.22;5049565;28;20076;-76
2022/01/04 12:11:26;;;;;;;5.53;3.47;;;;;;;14.20;72.47;100216.13;5033236;28;20095;-78
2022/01/04 12:14:00;;;;;;;5.93;3.53;;;;;;;14.24;71.62;100206.69;5050890;28;20029;-76
2022/01/04 12:16:45;;;;;;;5.32;3.80;;;;;;;14.35;71.92;100227.66;5069998;28;20059;-78
2022/01/04 12:19:13;;;;;;;5.55;3.58;;;;;;;14.38;74.67;100231.19;5069385;28;20101;-76
2022/01/04 12:21:41;;;;;;;5.50;3.40;;;;;;;14.37;71.20;100242.41;5063771;28;20039;-78
2022/01/04 12:24:08;;;;;;;4.68;2.95;;;;;;;14.34;74.52;100225.91;5052056;28;20025;-81
2022/01/04 12:26:35;;;;;;;5.15;3.03;;;;;;;14.19;73.04;100226.50;5025784;28;20519;-81
2022/01/04 12:29:09;;;;;;;7.22;4.30;;;;;;;14.27;73.65;100239.63;5027713;28;20037;-80
2022/01/04 12:31:44;;;;;;;5.32;3.15;;;;;;;14.20;75.46;100236.91;5025916;28;20038;-78
2022/01/04 12:34:36;;;;;;;5.20;3.58;;;;;;;14.20;74.04;100236.91;5026486;28;20033;-83
2022/01/04 12:37:04;;;;;;;7.85;3.67;;;;;;;14.13;75.58;100239.38;4992430;28;20041;-82
2022/01/04 12:39:35;;;;;;;5.35;3.05;;;;;;;14.07;75.98;100233.22;5027125;28;20044;-80
2022/01/04 12:42:01;;;;;;;6.32;2.90;;;;;;;13.83;74.80;100191.22;5023947;28;20041;-80
2022/01/04 12:44:28;;;;;;;5.30;3.10;;;;;;;14.02;75.67;100229.66;5025575;28;20037;-81
2022/01/04 12:46:55;;;;;;;5.50;2.95;;;;;;;13.89;75.31;100206.91;5025735;28;20132;-81
2022/01/04 12:49:23;;;;;;;5.00;2.65;;;;;;;13.94;73.34;100218.25;5024136;28;20032;-78
2022/01/04 12:52:11;;;;;;;4.68;2.90;;;;;;;13.90;73.54;100219.03;5028286;28;20076;-75
2022/01/04 12:54:41;;;;;;;6.23;2.87;;;;;;;13.79;73.25;100221.41;5027062;28;20091;-76
2022/01/04 12:57:14;;;;;;;4.93;3.10;;;;;;;13.56;75.51;100176.88;5027668;28;20041;-76
2022/01/04 12:59:44;;;;;;;4.15;2.95;;;;;;;13.75;76.20;100222.22;5028106;28;20650;-76
2022/01/04 13:02:27;;;;;;;4.95;3.28;;;;;;;13.74;74.66;100225.66;5026244;28;20033;-74
2022/01/04 13:04:57;;;;;;;6.07;2.95;;;;;;;13.63;74.87;100206.41;5011660;28;20088;-74
2022/01/04 13:07:26;;;;;;;6.38;3.30;;;;;;;13.60;73.86;100204.63;4989164;28;20069;-76
2022/01/04 13:12:54;;;;;;;6.78;3.95;;;;;;;13.50;73.87;100202.69;5163960;22;20303;-75
2022/01/04 13:15:20;;;;;;;6.60;3.78;;;;;;;13.47;75.48;100202.63;5081435;28;20024;-76
2022/01/04 13:17:52;;;;;;;7.85;3.63;;;;;;;13.41;77.04;100204.25;5079281;28;20036;-72
2022/01/04 13:20:26;;;;;;;5.95;3.10;;;;;;;13.31;74.07;100191.00;5074622;28;20020;-72
2022/01/04 13:22:52;;;;;;;8.45;3.70;;;;;;;13.38;76.30;100205.88;5069766;28;20036;-73
2022/01/04 13:25:19;;;;;;;5.50;2.90;;;;;;;13.26;77.12;100199.56;5070108;28;20032;-73
2022/01/04 13:27:44;;;;;;;5.70;3.30;;;;;;;13.24;76.71;100200.38;5068198;28;20493;-75
2022/01/04 13:30:28;;;;;;;6.63;3.38;;;;;;;13.17;75.78;100196.78;5071022;28;20117;-76
2022/01/04 13:32:57;;;;;;;5.57;3.08;;;;;;;13.07;77.85;100197.41;5052491;28;20051;-73
2022/01/04 13:35:34;;;;;;;7.18;4.40;;;;;;;12.85;77.14;100173.63;5072514;28;20032;-75
2022/01/04 13:38:07;;;;;;;6.75;3.53;;;;;;;12.70;76.79;100160.31;5072716;28;20113;-76
2022/01/04 13:40:35;;;;;;;5.00;3.50;;;;;;;12.91;78.43;100204.84;5069604;28;20025;-74
2022/01/04 13:43:33;;;;;;;7.65;3.70;;;;;;;12.93;78.78;100207.47;5070200;28;20029;-76
2022/01/04 13:46:10;;;;;;;5.70;3.20;;;;;;;12.90;76.71;100204.81;5013157;28;20049;-77
2022/01/04 13:48:43;;;;;;;7.07;3.90;;;;;;;12.87;77.84;100215.09;4988911;28;20128;-78
2022/01/04 13:51:15;;;;;;;6.30;3.35;;;;;;;12.67;78.33;100176.63;4966800;28;20130;-80
2022/01/04 13:53:48;;;;;;;6.82;3.92;;;;;;;12.84;80.11;100207.25;4948020;29;20509;-81
2022/01/04 13:56:32;;;;;;;5.68;3.60;;;;;;;12.76;80.83;100202.78;4909592;29;20055;-86
2022/01/04 13:58:58;;;;;;;6.63;3.42;;;;;;;12.74;81.10;100204.44;4892717;29;20058;-83
2022/01/04 14:01:41;;;;;;;9.32;3.85;;;;;;;12.59;81.06;100185.97;4909992;29;20056;-81
2022/01/04 14:04:13;;;;;;;9.63;3.83;;;;;;;12.63;81.00;100195.53;4909848;29;20044;-78
2022/01/04 14:06:58;;;;;;;7.80;3.92;;;;;;;12.33;81.13;100156.84;4909824;29;20051;-78
2022/01/04 14:09:32;;;;;;;5.13;3.83;;;;;;;12.45;81.65;100202.03;4909758;29;20040;-78
2022/01/04 14:12:00;;;;;;;6.53;4.20;;;;;;;12.48;82.58;100192.59;4909538;29;20044;-80
2022/01/04 14:14:30;;;;;;;13.00;4.20;;;;;;;12.37;83.76;100184.53;4910174;29;20577;-79
2022/01/04 14:17:03;;;;;;;6.95;4.50;;;;;;;12.36;84.12;100193.16;4893049;29;20051;-82
2022/01/04 14:19:33;;;;;;;8.35;4.10;;;;;;;12.31;84.54;100182.66;4908500;29;20515;-81
2022/01/04 14:22:02;;;;;;;6.30;3.35;;;;;;;12.09;84.48;100157.97;4917609;29;20059;-79
2022/01/04 14:24:49;;;;;;;6.68;4.03;;;;;;;12.18;84.68;100196.16;4957243;28;20030;-80
2022/01/04 14:27:23;;;;;;;5.45;4.13;;;;;;;12.12;85.09;100190.00;5000649;28;20030;-81
2022/01/04 14:29:54;;;;;;;8.65;5.05;;;;;;;12.01;85.85;100186.22;5073745;28;20081;-78
2022/01/04 14:32:24;;;;;;;11.32;4.65;;;;;;;12.00;86.25;100179.31;5070804;28;20490;-78
2022/01/04 14:34:51;;;;;;;9.70;5.20;;;;;;;11.92;86.41;100178.19;5070333;28;20028;-78
2022/01/04 14:37:18;;;;;;;6.80;4.13;;;;;;;11.86;87.32;100180.59;5071690;28;20025;-80
2022/01/04 14:39:44;;;;;;;10.27;5.00;;;;;;;11.72;88.30;100178.50;5071344;28;20028;-76
2022/01/04 14:42:10;;;;;;;8.57;4.82;;;;;;;11.54;88.87;100145.28;5070436;28;20031;-77
2022/01/04 14:44:37;;;;;;;10.13;5.30;;;;;;;11.72;89.16;100173.34;5071746;28;20103;-77
2022/01/04 14:47:05;;;;;;;7.82;4.85;;;;;;;11.54;89.73;100158.22;5071296;28;20024;-80
2022/01/04 14:49:34;;;;;;;8.00;4.75;;;;;;;11.32;90.64;100142.06;5072440;28;20097;-81
2022/01/04 14:52:01;;;;;;;8.23;5.05;;;;;;;11.47;91.35;100164.03;5071949;28;20032;-83
2022/01/04 14:54:27;;;;;;;11.20;6.47;;;;;;;11.13;92.29;100132.94;5068588;28;20032;-77
2022/01/04 14:56:53;;;;;;;8.02;6.57;;;;;;;11.22;93.55;100165.03;5090072;28;20527;-77
2022/01/04 14:59:19;;;;;;;25.63;22.15;;;;;;;11.12;94.92;100166.47;5072317;28;20119;-76
2022/01/04 15:01:45;;;;;;;46.13;40.58;;;;;;;11.09;95.49;100167.25;5073980;28;20412;-75
2022/01/04 15:04:11;;;;;;;27.48;24.98;;;;;;;11.02;96.46;100173.06;5071086;28;20025;-76
2022/01/04 15:06:42;;;;;;;13.52;12.15;;;;;;;10.96;97.01;100166.00;5070102;28;20017;-76
2022/01/04 15:09:09;;;;;;;10.05;6.72;;;;;;;10.82;97.61;100167.31;5072175;28;20131;-69
2022/01/04 15:11:35;;;;;;;10.38;6.40;;;;;;;10.87;98.76;100170.03;5092887;28;20081;-77
2022/01/04 15:14:00;;;;;;;10.02;6.15;;;;;;;10.67;99.60;100163.41;5093024;28;20154;-75
2022/01/04 15:16:27;;;;;;;10.80;6.22;;;;;;;10.76;100.00;100172.28;5092586;28;20028;-75
2022/01/04 15:18:53;;;;;;;12.07;6.47;;;;;;;10.81;100.00;100168.97;5091485;28;20038;-76
2022/01/04 15:21:19;;;;;;;17.30;6.05;;;;;;;10.84;98.64;100166.50;5092920;28;20428;-74
2022/01/04 15:23:46;;;;;;;18.58;6.53;;;;;;;10.90;98.58;100172.69;5074645;28;20473;-79
2022/01/04 15:26:12;;;;;;;12.23;6.72;;;;;;;10.78;98.67;100158.56;5080802;28;20497;-76
2022/01/04 15:28:38;;;;;;;12.38;6.55;;;;;;;10.76;99.89;100160.22;5082093;28;20050;-79
2022/01/04 15:31:05;;;;;;;11.68;7.15;;;;;;;10.35;99.12;100087.50;5074777;28;20039;-75
2022/01/04 15:33:33;;;;;;;12.75;7.20;;;;;;;10.78;98.92;100156.00;5050378;28;20075;-75
2022/01/04 15:36:00;;;;;;;15.52;7.90;;;;;;;10.72;99.54;100162.69;5071693;28;20576;-78
2022/01/04 15:38:25;;;;;;;11.27;8.00;;;;;;;10.46;100.00;100149.81;5047514;28;20024;-86
2022/01/04 15:40:52;;;;;;;13.40;8.57;;;;;;;10.33;100.00;100157.13;5071856;28;20033;-78
2022/01/04 15:43:17;;;;;;;11.25;8.57;;;;;;;10.36;100.00;100153.81;5056744;28;20081;-75
2022/01/04 15:45:43;;;;;;;15.23;9.43;;;;;;;10.36;100.00;100144.34;5073551;28;20111;-77
2022/01/04 15:48:08;;;;;;;16.80;9.38;;;;;;;10.47;100.00;100144.69;5080758;28;20036;-80
2022/01/04 15:50:34;;;;;;;21.98;9.57;;;;;;;10.51;100.00;100146.53;5053807;28;20031;-79
2022/01/04 15:52:59;;;;;;;13.65;8.65;;;;;;;10.46;100.00;100135.19;5070439;28;20042;-79
2022/01/04 15:55:44;;;;;;;16.55;8.75;;;;;;;10.48;100.00;100141.28;5024456;28;20164;-76
2022/01/04 15:58:10;;;;;;;14.52;8.77;;;;;;;10.31;100.00;100106.31;5029007;28;20515;-79
2022/01/04 16:00:36;;;;;;;16.92;8.93;;;;;;;10.45;100.00;100119.66;5009107;28;20033;-79
2022/01/04 16:03:02;;;;;;;15.80;8.95;;;;;;;10.54;100.00;100144.91;5009250;28;20049;-78
2022/01/04 16:05:28;;;;;;;16.05;8.95;;;;;;;10.49;100.00;100135.31;5009169;28;20038;-74
2022/01/04 16:07:54;;;;;;;13.38;8.75;;;;;;;10.61;100.00;100141.69;5009061;28;20034;-73
2022/01/04 16:10:20;;;;;;;16.40;8.88;;;;;;;10.60;100.00;100133.03;5009297;28;20038;-72
2022/01/04 16:12:47;;;;;;;16.95;9.18;;;;;;;10.47;100.00;100126.63;5015764;28;20068;-73
2022/01/04 16:15:20;;;;;;;15.80;8.88;;;;;;;10.48;100.00;100130.06;5028761;28;20046;-71
2022/01/04 16:18:12;;;;;;;14.27;9.15;;;;;;;10.51;100.00;100127.59;5039753;28;20118;-72
2022/01/04 16:23:22;;;;;;;13.63;9.48;;;;;;;10.33;100.00;100100.34;5048509;28;20047;-73
2022/01/04 16:25:47;;;;;;;13.10;8.57;;;;;;;10.43;100.00;100111.88;5052879;28;20469;-73
2022/01/04 16:28:15;;;;;;;13.02;9.25;;;;;;;10.35;100.00;100111.63;5090560;28;20046;-75
2022/01/04 16:30:42;;;;;;;13.27;8.73;;;;;;;10.32;100.00;100111.50;5090997;28;20052;-79
2022/01/04 16:33:07;;;;;;;16.85;9.40;;;;;;;10.16;100.00;100089.50;5087181;28;20028;-78
2022/01/04 16:35:33;;;;;;;15.75;9.10;;;;;;;10.20;100.00;100091.38;5096063;28;20024;-87
2022/01/04 16:37:59;;;;;;;31.80;21.92;;;;;;;9.96;100.00;100078.53;5086750;28;20469;-81
2022/01/04 16:40:24;;;;;;;20.38;14.00;;;;;;;9.95;100.00;100099.97;5088969;28;20027;-82
2022/01/04 16:42:51;;;;;;;28.83;14.23;;;;;;;9.87;100.00;100092.00;5091086;28;20031;-84
2022/01/04 16:45:17;;;;;;;30.08;17.08;;;;;;;9.99;100.00;100117.31;5076619;28;20135;-83
2022/01/04 16:47:43;;;;;;;31.95;18.52;;;;;;;9.96;100.00;100109.47;5084827;28;20059;-87
2022/01/04 16:50:10;;;;;;;33.03;18.40;;;;;;;10.03;100.00;100120.84;5088685;28;20039;-83
2022/01/04 16:52:38;;;;;;;32.10;16.63;;;;;;;9.99;100.00;100113.84;5088064;28;20035;-86
2022/01/04 16:55:05;;;;;;;36.60;22.38;;;;;;;9.98;100.00;100112.09;5090245;28;20031;-78
2022/01/04 16:57:31;;;;;;;36.55;18.73;;;;;;;9.86;100.00;100107.41;5090486;28;20500;-79
2022/01/04 16:59:58;;;;;;;30.23;16.77;;;;;;;9.82;100.00;100102.97;5088204;28;20067;-82
2022/01/04 17:02:23;;;;;;;25.77;15.95;;;;;;;9.72;100.00;100104.38;5091350;28;20024;-81
2022/01/04 17:04:49;;;;;;;23.33;15.60;;;;;;;9.69;100.00;100092.25;5088740;28;20080;-83
2022/01/04 17:07:15;;;;;;;28.95;17.77;;;;;;;9.83;100.00;100112.44;5088438;28;20032;-79
2022/01/04 17:09:51;;;;;;;26.50;16.15;;;;;;;9.80;100.00;100113.22;5088934;28;20026;-80
2022/01/04 17:17:43;;;;;;;40.78;20.40;;;;;;;9.80;100.00;100126.13;5106555;28;20076;-80
2022/01/04 17:20:10;;;;;;;88.10;53.10;;;;;;;9.71;100.00;100124.09;5108616;28;20043;-73
2022/01/04 17:22:41;;;;;;;51.08;31.45;;;;;;;9.72;100.00;100125.00;5091223;28;20031;-82
2022/01/04 17:25:12;;;;;;;54.97;26.35;;;;;;;9.70;100.00;100126.63;5105512;28;20036;-82
2022/01/04 17:27:38;;;;;;;79.80;29.45;;;;;;;9.45;100.00;100096.56;5091101;28;20134;-79
2022/01/04 17:30:10;;;;;;;58.03;23.08;;;;;;;9.64;100.00;100126.41;5090344;28;20078;-80
2022/01/04 17:32:35;;;;;;;57.88;25.25;;;;;;;9.67;100.00;100134.25;5099123;28;20051;-77
2022/01/04 17:35:01;;;;;;;66.78;41.80;;;;;;;9.63;100.00;100117.81;5108177;28;20051;-83
2022/01/04 17:37:27;;;;;;;75.30;46.90;;;;;;;9.57;100.00;100119.28;5090941;28;20136;-82
2022/01/04 17:39:52;;;;;;;72.50;47.22;;;;;;;9.42;100.00;100130.81;5108241;28;20035;-79
2022/01/04 17:42:19;;;;;;;81.57;54.22;;;;;;;9.32;100.00;100113.25;5108172;28;20385;-79
2022/01/04 17:44:45;;;;;;;70.72;53.70;;;;;;;9.29;100.00;100121.75;5105036;28;20020;-79
2022/01/04 17:47:11;;;;;;;77.00;51.25;;;;;;;9.24;100.00;100133.59;5090096;28;20024;-74
2022/01/04 17:49:37;;;;;;;70.65;47.17;;;;;;;9.15;100.00;100128.97;5061812;28;20525;-79
2022/01/04 17:52:03;;;;;;;65.28;43.15;;;;;;;9.22;100.00;100135.22;5094585;28;20032;-78
2022/01/04 17:54:29;;;;;;;74.32;48.35;;;;;;;9.10;100.00;100138.22;5072884;28;20028;-78
2022/01/04 17:56:54;;;;;;;78.60;48.10;;;;;;;9.01;100.00;100122.41;5074561;28;20082;-76
2022/01/04 17:59:20;;;;;;;60.20;42.53;;;;;;;8.89;100.00;100115.97;5075816;28;20508;-77
2022/01/04 18:01:48;;;;;;;61.40;40.38;;;;;;;8.83;100.00;100123.47;5094247;28;20058;-77
2022/01/04 18:04:14;;;;;;;46.55;33.85;;;;;;;8.71;100.00;100128.16;5070852;28;20032;-77
2022/01/04 18:06:39;;;;;;;60.63;36.75;;;;;;;8.65;100.00;100115.94;5071073;28;20102;-77
2022/01/04 18:09:05;;;;;;;55.63;37.08;;;;;;;8.49;100.00;100127.31;5071010;28;20041;-78
2022/01/04 18:11:30;;;;;;;56.45;37.05;;;;;;;8.14;100.00;100120.69;5071024;28;20044;-84
2022/01/04 18:13:58;;;;;;;50.58;34.33;;;;;;;7.97;100.00;100125.16;5088592;28;20047;-79
2022/01/04 18:16:24;;;;;;;41.55;26.50;;;;;;;7.99;100.00;100114.13;5074359;28;20036;-75
2022/01/04 18:18:49;;;;;;;49.35;32.58;;;;;;;8.16;100.00;100127.69;5074201;28;20062;-80
2022/01/04 18:21:15;;;;;;;40.85;27.60;;;;;;;7.97;100.00;100094.31;5074310;28;20482;-81
2022/01/04 18:23:40;;;;;;;27.17;19.60;;;;;;;7.87;100.00;100082.78;5074025;28;20043;-75
2022/01/04 18:26:06;;;;;;;33.72;24.02;;;;;;;8.13;100.00;100127.53;5090702;28;20063;-76
2022/01/04 18:28:31;;;;;;;34.35;21.77;;;;;;;8.16;100.00;100117.41;5087954;28;20110;-77
2022/01/04 18:30:57;;;;;;;30.95;20.23;;;;;;;8.26;100.00;100129.81;5065764;28;20033;-78
2022/01/04 18:33:22;;;;;;;24.85;18.35;;;;;;;8.19;100.00;100116.66;5069551;28;20120;-76
2022/01/04 18:35:48;;;;;;;27.45;18.42;;;;;;;8.00;100.00;100084.13;5083797;28;20098;-78
2022/01/04 18:38:15;;;;;;;26.50;18.08;;;;;;;7.78;100.00;100047.28;5073288;28;20103;-77
2022/01/04 18:40:41;;;;;;;32.88;18.40;;;;;;;8.12;100.00;100118.06;5090067;28;20028;-75
2022/01/04 18:43:07;;;;;;;27.60;18.40;;;;;;;8.04;100.00;100115.19;5089830;28;20044;-77
2022/01/04 18:45:33;;;;;;;25.55;17.05;;;;;;;8.00;100.00;100121.03;5088658;28;20024;-76
2022/01/04 18:47:59;;;;;;;24.42;16.13;;;;;;;7.97;100.00;100117.44;5089767;28;20043;-84
2022/01/04 18:50:24;;;;;;;27.73;17.85;;;;;;;7.89;100.00;100097.44;5089924;28;20023;-84
2022/01/04 18:52:50;;;;;;;28.23;17.30;;;;;;;7.93;100.00;100119.88;5089724;28;20028;-80
2022/01/04 18:55:17;;;;;;;30.38;16.10;;;;;;;7.60;100.00;100137.31;5088151;28;20584;-83
2022/01/04 18:57:43;;;;;;;101.63;17.80;;;;;;;7.04;100.00;100129.72;5072173;28;20567;-77
2022/01/04 19:00:11;;;;;;;234.98;22.67;;;;;;;7.02;100.00;100127.91;5089905;28;20028;-78
2022/01/04 19:02:36;;;;;;;147.10;21.92;;;;;;;7.14;100.00;100125.91;5089389;28;20568;-78
2022/01/04 19:05:03;;;;;;;61.33;19.70;;;;;;;7.19;100.00;100121.84;5072894;28;20150;-79
2022/01/04 19:07:28;;;;;;;125.85;20.33;;;;;;;6.92;100.00;100076.13;5091574;28;20089;-80
2022/01/04 19:09:55;;;;;;;203.15;22.38;;;;;;;6.90;100.00;100123.06;5093927;28;20110;-80
2022/01/04 19:12:21;;;;;;;78.25;17.42;;;;;;;6.70;100.00;100129.84;5085467;28;20576;-83
2022/01/04 19:14:47;;;;;;;86.60;18.20;;;;;;;6.46;100.00;100120.19;5029361;28;20072;-85
2022/01/04 19:17:12;;;;;;;75.30;22.65;;;;;;;6.35;100.00;100106.84;5029409;28;20073;-80
2022/01/04 19:19:38;;;;;;;54.72;22.77;;;;;;;6.49;100.00;100102.38;5026535;28;20053;-76
2022/01/04 19:22:04;;;;;;;32.13;20.30;;;;;;;6.73;100.00;100114.59;5030248;28;20026;-78
2022/01/04 19:24:29;;;;;;;29.25;19.70;;;;;;;6.80;100.00;100086.75;5030394;28;20120;-78
2022/01/04 19:26:55;;;;;;;41.55;19.92;;;;;;;7.00;100.00;100114.13;4988389;28;20096;-75
2022/01/04 19:29:23;;;;;;;37.65;20.33;;;;;;;7.05;100.00;100107.50;4984831;28;20035;-76
2022/01/04 19:31:52;;;;;;;35.00;20.48;;;;;;;6.94;100.00;100078.78;4989550;28;20053;-77
2022/01/04 19:37:03;;;;;;;210.02;28.05;;;;;;;7.13;100.00;100088.19;4984575;28;20053;-77
2022/01/04 19:39:33;;;;;;;333.55;32.03;;;;;;;7.24;100.00;100083.50;4970365;28;20077;-76
2022/01/04 19:42:00;;;;;;;298.90;31.98;;;;;;;7.33;100.00;100095.88;4989136;28;20046;-75
2022/01/04 19:44:27;;;;;;;248.65;29.85;;;;;;;7.38;100.00;100096.97;4989456;28;20131;-77
2022/01/04 19:46:54;;;;;;;255.88;29.65;;;;;;;7.34;100.00;100090.84;5046469;28;20041;-75
2022/01/04 19:50:28;;;;;;;306.48;32.45;;;;;;;7.54;100.00;100103.63;5107098;27;20411;-77
2022/01/04 19:52:54;;;;;;;251.25;30.42;;;;;;;7.49;100.00;100112.84;5085775;28;20413;-77
2022/01/04 19:55:21;;;;;;;323.67;32.20;;;;;;;7.46;100.00;100108.44;5085049;28;20498;-75
2022/01/04 19:57:48;;;;;;;227.23;29.92;;;;;;;7.31;100.00;100112.94;5064191;28;20498;-74
2022/01/04 20:00:14;;;;;;;255.50;29.70;;;;;;;7.36;100.00;100114.00;5064179;28;20036;-78
2022/01/04 20:02:40;;;;;;;210.40;26.73;;;;;;;7.42;100.00;100104.00;5059091;28;20041;-75
2022/01/04 20:05:06;;;;;;;165.32;25.83;;;;;;;7.44;100.00;100113.53;5044188;28;20475;-77
2022/01/04 20:07:32;;;;;;;185.05;27.73;;;;;;;7.58;100.00;100124.41;5028178;28;20765;-77
2022/01/04 20:10:03;;;;;;;102.38;24.60;;;;;;;7.45;100.00;100104.13;5047649;28;20071;-74
2022/01/04 20:12:29;;;;;;;148.75;26.60;;;;;;;7.23;100.00;100107.47;5063735;28;20048;-80
2022/01/04 20:14:55;;;;;;;98.57;25.88;;;;;;;7.23;100.00;100113.47;5064977;28;20092;-84
2022/01/04 20:17:20;;;;;;;104.82;27.15;;;;;;;7.17;100.00;100110.63;5047924;28;20098;-85
2022/01/04 20:19:46;;;;;;;80.50;24.50;;;;;;;7.23;100.00;100116.03;5047956;28;20414;-83
2022/01/04 20:22:13;;;;;;;93.25;26.35;;;;;;;7.12;100.00;100102.69;5047835;28;20090;-84
2022/01/04 20:24:39;;;;;;;81.95;25.02;;;;;;;7.06;100.00;100116.97;5044358;28;20124;-83
2022/01/04 20:27:05;;;;;;;100.70;25.48;;;;;;;7.07;100.00;100113.59;5063061;28;20037;-80
2022/01/04 20:29:31;;;;;;;62.72;25.17;;;;;;;7.06;100.00;100111.81;5078893;28;20052;-82
2022/01/04 20:31:57;;;;;;;50.88;24.55;;;;;;;7.04;100.00;100093.78;5086109;28;20063;-85
2022/01/04 20:34:23;;;;;;;100.07;26.38;;;;;;;6.95;100.00;100073.72;5085712;28;20089;-81
2022/01/04 20:36:49;;;;;;;57.72;25.10;;;;;;;7.20;100.00;100112.44;5106145;28;20707;-77
2022/01/04 20:39:14;;;;;;;43.95;24.70;;;;;;;7.29;100.00;100126.56;5089601;28;20029;-69
2022/01/04 20:41:41;;;;;;;38.15;23.90;;;;;;;7.32;100.00;100119.81;5079235;28;20040;-75
2022/01/04 20:44:07;;;;;;;39.95;25.13;;;;;;;7.38;100.00;100125.22;5082037;28;20417;-75
2022/01/04 20:46:33;;;;;;;89.50;26.35;;;;;;;7.33;100.00;100103.56;5086779;28;20050;-77
2022/01/04 20:48:58;;;;;;;35.42;24.25;;;;;;;7.36;100.00;100109.72;5086426;28;20502;-74
2022/01/04 20:51:24;;;;;;;97.25;27.42;;;;;;;7.48;100.00;100123.91;5086780;28;20021;-77
2022/01/04 20:53:49;;;;;;;77.82;28.13;;;;;;;7.55;100.00;100115.69;5087213;28;20028;-78
2022/01/04 20:56:15;;;;;;;58.45;26.30;;;;;;;7.29;100.00;100077.78;5086933;28;20055;-77
2022/01/04 20:58:40;;;;;;;65.03;26.25;;;;;;;7.37;100.00;100087.50;5086600;28;20031;-75
2022/01/04 21:01:07;;;;;;;108.72;26.17;;;;;;;7.53;100.00;100117.31;5069877;28;20025;-79
2022/01/04 21:03:36;;;;;;;87.82;25.17;;;;;;;7.48;100.00;100119.69;5072949;28;20024;-79
2022/01/04 21:06:03;;;;;;;133.52;23.27;;;;;;;6.96;100.00;100103.69;5071093;28;20041;-76
2022/01/04 21:08:29;;;;;;;111.80;24.83;;;;;;;6.51;100.00;100100.75;5073308;28;20085;-82
2022/01/04 21:10:54;;;;;;;80.10;26.20;;;;;;;6.22;100.00;100100.25;5071739;28;20021;-85
2022/01/04 21:13:20;;;;;;;146.80;34.70;;;;;;;6.27;100.00;100119.28;5088349;28;20032;-87
2022/01/04 21:15:45;;;;;;;110.38;27.17;;;;;;;6.12;100.00;100092.94;5073023;28;20029;-80
2022/01/04 21:18:11;;;;;;;77.60;24.00;;;;;;;6.42;100.00;100111.47;5088557;28;20020;-79
2022/01/04 21:20:37;;;;;;;122.43;25.00;;;;;;;6.28;100.00;100059.53;5088449;28;20055;-81
2022/01/04 21:23:03;;;;;;;44.22;24.27;;;;;;;6.47;100.00;100089.47;5073170;28;20104;-81
2022/01/04 21:25:29;;;;;;;58.05;28.13;;;;;;;6.53;100.00;100088.00;5088221;28;20039;-79
2022/01/04 21:27:56;;;;;;;50.97;22.70;;;;;;;6.31;100.00;100082.72;5073013;28;20024;-77
2022/01/04 21:30:21;;;;;;;132.75;27.00;;;;;;;6.20;100.00;100086.47;5072854;28;20034;-78
2022/01/04 21:32:48;;;;;;;63.58;24.88;;;;;;;6.24;100.00;100080.72;5088362;28;20024;-84
2022/01/04 21:35:14;;;;;;;55.33;23.63;;;;;;;6.19;100.00;100069.34;5072818;28;20020;-78
2022/01/04 21:37:41;;;;;;;45.50;24.75;;;;;;;6.22;100.00;100063.47;5072897;28;20064;-78
2022/01/04 21:40:13;;;;;;;50.17;25.45;;;;;;;6.31;100.00;100084.44;5070265;28;20052;-79
2022/01/04 21:42:39;;;;;;;33.58;23.42;;;;;;;6.14;100.00;100061.44;5072809;28;20058;-81
2022/01/04 21:45:05;;;;;;;90.60;24.98;;;;;;;6.27;100.00;100085.09;5072453;28;20024;-80
2022/01/04 21:47:32;;;;;;;43.60;23.50;;;;;;;6.31;100.00;100087.00;5069626;28;20036;-83
2022/01/04 21:49:57;;;;;;;66.00;22.30;;;;;;;6.34;100.00;100082.00;5069640;28;20114;-79